Time;durP1;ratioP1;P1;durP2;ratioP2;P2;SDS_P1;SDS_P2;PMS_P1;PMS_P2;Temp;Humidity;BMP_temperature;BMP_pressure;BME280_temperature;BME280_humidity;BME280_pressure;Samples;Min_cycle;Max_cycle;Signal;HPM_P1;HPM_P2
2023/01/02 00:00:20;;;;;;;1.83;1.25;;;6.80;99.90;;;;;;5026655;28;19967;-53
2023/01/02 00:02:47;;;;;;;2.63;1.70;;;6.80;99.90;;;;;;5031392;28;20069;-54
2023/01/02 00:05:14;;;;;;;3.38;1.70;;;6.70;99.90;;;;;;5029065;28;20487;-54
2023/01/02 00:07:41;;;;;;;2.80;1.52;;;6.70;99.90;;;;;;5027226;28;20042;-53
2023/01/02 00:10:08;;;;;;;1.55;1.20;;;6.60;99.90;;;;;;5031112;28;20043;-54
2023/01/02 00:12:35;;;;;;;1.75;1.50;;;6.50;99.90;;;;;;5028326;28;20055;-56
2023/01/02 00:15:02;;;;;;;;;;;6.50;99.90;;;;;;5028139;28;20531;-55
2023/01/02 00:17:29;;;;;;;1.75;1.30;;;6.50;99.90;;;;;;5030059;28;19960;-53
2023/01/02 00:19:56;;;;;;;;;;;6.40;99.90;;;;;;5026584;28;20049;-54
2023/01/02 00:22:22;;;;;;;3.88;1.65;;;6.40;99.90;;;;;;5028491;28;19966;-53
2023/01/02 00:24:49;;;;;;;4.00;1.60;;;6.40;99.90;;;;;;5028758;28;20746;-54
2023/01/02 00:27:16;;;;;;;;;;;6.40;99.90;;;;;;5029583;28;20044;-56
2023/01/02 00:29:43;;;;;;;3.85;1.90;;;6.40;99.90;;;;;;5029696;28;19927;-55
2023/01/02 00:32:10;;;;;;;3.17;1.70;;;6.40;99.90;;;;;;5027460;28;20083;-54
2023/01/02 00:34:36;;;;;;;3.72;1.70;;;6.40;99.90;;;;;;5027915;28;20110;-54
2023/01/02 00:37:03;;;;;;;2.20;1.67;;;6.30;99.90;;;;;;5030468;28;20131;-54
2023/01/02 00:39:30;;;;;;;1.60;1.50;;;6.30;99.90;;;;;;5028072;28;20072;-54
2023/01/02 00:41:56;;;;;;;;;;;6.30;99.90;;;;;;5026491;28;20086;-55
2023/01/02 00:44:23;;;;;;;4.32;2.10;;;6.30;99.90;;;;;;5027187;28;20992;-55
2023/01/02 00:46:51;;;;;;;2.15;1.52;;;6.30;99.90;;;;;;5027495;28;20029;-51
2023/01/02 00:49:18;;;;;;;;;;;6.30;99.90;;;;;;5027499;28;20047;-55
2023/01/02 00:51:44;;;;;;;3.10;1.80;;;6.30;99.90;;;;;;5028374;28;20474;-55
2023/01/02 00:54:11;;;;;;;;;;;6.40;99.90;;;;;;5029786;28;20049;-53
2023/01/02 00:56:38;;;;;;;2.78;1.55;;;6.40;99.90;;;;;;5026288;28;19931;-53
2023/01/02 00:59:04;;;;;;;4.13;2.13;;;6.40;99.90;;;;;;5029627;28;20049;-55
2023/01/02 01:01:31;;;;;;;2.38;1.70;;;6.50;99.90;;;;;;5028699;28;20907;-54
2023/01/02 01:03:59;;;;;;;2.28;1.45;;;6.50;99.90;;;;;;5026063;28;20691;-55
2023/01/02 01:06:26;;;;;;;2.95;1.77;;;6.50;99.90;;;;;;5031141;28;20049;-55
2023/01/02 01:08:53;;;;;;;1.70;1.40;;;6.50;99.90;;;;;;5011605;28;20080;-55
2023/01/02 01:11:19;;;;;;;3.97;1.75;;;6.50;99.90;;;;;;5026297;28;20050;-55
2023/01/02 01:13:46;;;;;;;2.45;1.65;;;6.50;99.90;;;;;;5027032;28;20071;-55
2023/01/02 01:16:16;;;;;;;2.13;1.70;;;6.50;99.90;;;;;;5024732;28;20614;-55
2023/01/02 01:18:44;;;;;;;11.65;1.85;;;6.50;99.90;;;;;;5029581;28;20219;-54
2023/01/02 01:21:14;;;;;;;2.28;1.67;;;6.50;99.90;;;;;;5031476;28;20041;-56
2023/01/02 01:23:41;;;;;;;3.50;1.33;;;6.40;99.90;;;;;;5032445;28;20194;-55
2023/01/02 01:26:11;;;;;;;2.63;1.80;;;6.50;99.90;;;;;;5014999;28;20052;-55
2023/01/02 01:28:38;;;;;;;2.35;1.50;;;6.40;99.90;;;;;;5029259;28;20572;-55
2023/01/02 01:31:10;;;;;;;2.30;1.60;;;6.40;99.90;;;;;;5016912;28;20411;-54
2023/01/02 01:33:39;;;;;;;2.97;1.67;;;6.40;99.90;;;;;;5029120;28;20048;-55
2023/01/02 01:36:08;;;;;;;8.48;1.77;;;6.40;99.90;;;;;;5033680;28;20629;-56
2023/01/02 01:38:35;;;;;;;3.90;1.95;;;6.40;99.90;;;;;;5028281;28;20045;-55
2023/01/02 01:41:03;;;;;;;1.65;1.27;;;6.40;99.90;;;;;;5031315;28;20117;-54
2023/01/02 01:44:22;;;;;;;2.55;1.50;;;6.50;99.90;;;;;;5029568;28;20052;-53
2023/01/02 01:46:49;;;;;;;2.28;1.65;;;6.60;99.90;;;;;;4995718;28;20060;-54
2023/01/02 01:49:25;;;;;;;3.55;2.20;;;6.50;99.90;;;;;;5032249;28;20187;-55
2023/01/02 01:52:02;;;;;;;4.72;1.58;;;6.50;99.90;;;;;;5026694;28;20660;-56
2023/01/02 01:54:41;;;;;;;3.05;1.50;;;6.50;99.90;;;;;;5028277;28;20131;-54
2023/01/02 01:57:15;;;;;;;3.22;1.70;;;6.40;99.90;;;;;;5032313;28;20056;-55
2023/01/02 01:59:42;;;;;;;2.65;1.60;;;6.30;99.90;;;;;;5031082;28;20130;-54
2023/01/02 02:02:09;;;;;;;2.33;1.73;;;6.30;99.90;;;;;;5030249;28;20789;-55
2023/01/02 02:04:37;;;;;;;2.58;1.50;;;6.20;99.90;;;;;;5029831;28;20095;-55
2023/01/02 02:07:03;;;;;;;2.28;1.48;;;6.20;99.90;;;;;;5029749;28;20482;-53
2023/01/02 02:09:50;;;;;;;;;;;6.20;99.90;;;;;;5031990;28;20063;-55
2023/01/02 02:12:18;;;;;;;6.70;1.65;;;6.20;99.90;;;;;;5030721;28;20046;-55
2023/01/02 02:14:53;;;;;;;2.75;1.98;;;6.20;99.90;;;;;;5030559;28;20040;-53
2023/01/02 02:17:31;;;;;;;2.85;2.10;;;6.20;99.90;;;;;;5014130;28;20642;-52
2023/01/02 02:20:24;;;;;;;3.95;1.90;;;6.20;99.90;;;;;;5029057;28;20140;-52
2023/01/02 02:23:21;;;;;;;5.22;1.75;;;6.20;99.90;;;;;;5013901;28;20056;-55
2023/01/02 02:25:55;;;;;;;3.58;2.08;;;6.20;99.90;;;;;;5013497;28;20037;-56
2023/01/02 02:28:59;;;;;;;4.63;1.60;;;6.30;99.90;;;;;;5032164;28;20045;-54
2023/01/02 02:31:41;;;;;;;1.95;1.35;;;6.30;99.90;;;;;;5029622;28;20101;-55
2023/01/02 02:34:16;;;;;;;2.58;1.50;;;6.30;99.90;;;;;;5032046;28;20052;-54
2023/01/02 02:37:00;;;;;;;2.55;1.73;;;6.40;99.90;;;;;;5029620;28;20052;-56
2023/01/02 02:40:18;;;;;;;2.15;1.05;;;6.40;99.90;;;;;;5029620;28;20075;-56
2023/01/02 02:42:54;;;;;;;2.08;1.40;;;6.40;99.90;;;;;;4993065;28;20705;-54
2023/01/02 02:46:02;;;;;;;1.13;1.00;;;6.40;99.90;;;;;;5028514;28;20875;-55
2023/01/02 02:49:05;;;;;;;4.10;1.95;;;6.40;99.90;;;;;;4999175;28;20822;-55
2023/01/02 02:51:41;;;;;;;2.75;1.70;;;6.40;99.90;;;;;;5030208;28;20041;-57
2023/01/02 02:54:13;;;;;;;3.45;1.55;;;6.40;99.90;;;;;;5026216;28;20055;-55
2023/01/02 02:56:41;;;;;;;3.25;1.45;;;6.40;99.90;;;;;;5029606;28;20052;-55
2023/01/02 02:59:10;;;;;;;2.30;1.50;;;6.40;99.90;;;;;;5015222;28;20521;-56
2023/01/02 03:01:37;;;;;;;1.63;1.10;;;6.30;99.90;;;;;;5030595;28;20053;-55
2023/01/02 03:04:19;;;;;;;2.53;1.75;;;6.30;99.90;;;;;;5029824;28;20075;-54
2023/01/02 03:07:03;;;;;;;3.28;1.42;;;6.30;99.90;;;;;;5028324;28;20036;-53
2023/01/02 03:09:50;;;;;;;2.33;1.67;;;6.30;99.90;;;;;;5029160;28;20037;-55
2023/01/02 03:12:45;;;;;;;3.67;1.10;;;6.30;99.90;;;;;;5029252;28;20048;-54
2023/01/02 03:15:40;;;;;;;2.58;1.67;;;6.20;99.90;;;;;;5032221;28;20431;-54
2023/01/02 03:18:13;;;;;;;1.70;1.42;;;6.30;99.90;;;;;;5015974;28;20052;-55
2023/01/02 03:20:49;;;;;;;3.55;1.27;;;6.20;99.90;;;;;;5028300;28;20084;-54
2023/01/02 03:23:20;;;;;;;1.60;1.50;;;6.20;99.90;;;;;;5030261;28;20052;-54
2023/01/02 03:25:47;;;;;;;2.50;1.20;;;6.10;99.90;;;;;;5029454;28;20516;-56
2023/01/02 03:28:17;;;;;;;4.25;1.30;;;6.00;99.90;;;;;;5029251;28;20041;-54
2023/01/02 03:30:48;;;;;;;3.53;2.17;;;6.00;99.90;;;;;;5031928;28;20044;-55
2023/01/02 03:33:23;;;;;;;1.52;1.27;;;5.90;99.90;;;;;;5029039;28;20069;-54
2023/01/02 03:35:55;;;;;;;2.22;1.35;;;5.90;99.90;;;;;;5030071;28;20091;-54
2023/01/02 03:38:45;;;;;;;4.63;1.70;;;5.80;99.90;;;;;;5029382;28;20053;-54
2023/01/02 03:41:22;;;;;;;6.55;1.33;;;5.90;99.90;;;;;;5030262;28;20059;-55
2023/01/02 03:43:52;;;;;;;3.92;1.60;;;5.90;99.90;;;;;;5027107;28;20211;-55
2023/01/02 03:46:31;;;;;;;1.80;1.30;;;5.90;99.90;;;;;;5028307;28;20045;-55
2023/01/02 03:49:07;;;;;;;1.40;1.20;;;6.00;99.90;;;;;;5028765;28;20354;-55
2023/01/02 03:51:34;;;;;;;2.13;1.23;;;6.00;99.90;;;;;;5028593;28;20143;-55
2023/01/02 03:54:03;;;;;;;9.07;1.45;;;6.00;99.90;;;;;;5029559;28;20224;-54
2023/01/02 03:56:41;;;;;;;3.10;1.80;;;6.00;99.90;;;;;;5027295;28;20475;-54
2023/01/02 03:59:22;;;;;;;3.58;1.80;;;5.90;99.90;;;;;;5027779;28;20835;-55
2023/01/02 04:02:01;;;;;;;2.28;1.25;;;5.90;99.90;;;;;;5026694;28;20110;-56
2023/01/02 04:04:37;;;;;;;2.55;1.40;;;5.80;99.90;;;;;;5011226;28;20098;-54
2023/01/02 04:07:10;;;;;;;2.08;1.35;;;5.80;99.90;;;;;;5015155;28;20101;-57
2023/01/02 04:09:39;;;;;;;1.27;1.15;;;5.70;99.90;;;;;;5028020;28;20037;-56
2023/01/02 04:12:11;;;;;;;1.88;1.17;;;5.70;99.90;;;;;;5029202;28;20114;-55
2023/01/02 04:14:43;;;;;;;2.30;1.42;;;5.70;99.90;;;;;;5024891;28;20052;-56
2023/01/02 04:17:13;;;;;;;2.97;1.45;;;5.70;99.90;;;;;;5029273;28;20048;-56
2023/01/02 04:19:49;;;;;;;1.98;1.77;;;5.70;99.90;;;;;;5024736;28;20037;-56
2023/01/02 04:22:26;;;;;;;1.05;0.95;;;5.70;99.90;;;;;;5028840;28;20081;-56
2023/01/02 04:25:02;;;;;;;2.65;1.27;;;5.70;99.90;;;;;;5028012;28;20053;-55
2023/01/02 04:27:38;;;;;;;1.65;1.48;;;5.80;99.90;;;;;;5015197;28;20048;-54
2023/01/02 04:30:05;;;;;;;4.25;1.40;;;5.90;99.90;;;;;;5046489;28;20052;-56
2023/01/02 04:32:38;;;;;;;1.77;1.20;;;5.90;99.90;;;;;;5025938;28;20127;-55
2023/01/02 04:35:07;;;;;;;1.92;1.50;;;5.90;99.90;;;;;;5017556;28;20114;-56
2023/01/02 04:37:37;;;;;;;6.13;1.55;;;6.00;99.90;;;;;;5029455;28;20049;-55
2023/01/02 04:40:21;;;;;;;2.50;1.45;;;6.10;99.90;;;;;;5026922;28;20143;-51
2023/01/02 04:42:49;;;;;;;4.03;1.20;;;6.20;99.90;;;;;;5027546;28;20072;-57
2023/01/02 04:45:16;;;;;;;4.05;1.55;;;6.20;99.90;;;;;;5028038;28;20044;-55
2023/01/02 04:47:43;;;;;;;2.15;1.05;;;6.30;99.90;;;;;;5028078;28;20110;-55
2023/01/02 04:50:10;;;;;;;;;;;6.30;99.90;;;;;;5026726;28;20056;-54
2023/01/02 04:52:37;;;;;;;1.08;0.82;;;6.40;99.90;;;;;;5027959;28;19952;-54
2023/01/02 04:55:04;;;;;;;;;;;6.50;99.90;;;;;;5035821;28;20198;-54
2023/01/02 04:57:31;;;;;;;1.08;0.93;;;6.50;99.90;;;;;;5031323;28;19924;-55
2023/01/02 04:59:58;;;;;;;2.15;0.85;;;6.40;99.90;;;;;;5033311;28;20045;-56
2023/01/02 05:02:25;;;;;;;;;;;6.40;99.90;;;;;;5033695;28;20208;-53
2023/01/02 05:04:51;;;;;;;3.70;1.08;;;6.30;99.90;;;;;;5035023;28;20278;-56
2023/01/02 05:07:18;;;;;;;1.92;1.20;;;6.30;99.90;;;;;;5031681;28;20519;-56
2023/01/02 05:09:45;;;;;;;3.45;0.85;;;6.20;99.90;;;;;;5017068;28;20064;-57
2023/01/02 05:12:11;;;;;;;;;;;6.20;99.90;;;;;;5033572;28;20711;-56
2023/01/02 05:14:38;;;;;;;2.17;1.45;;;6.10;99.90;;;;;;5031409;28;19932;-56
2023/01/02 05:17:05;;;;;;;1.70;1.10;;;6.10;99.90;;;;;;5031124;28;20622;-56
2023/01/02 05:19:32;;;;;;;3.03;1.13;;;6.00;99.90;;;;;;5031967;28;20048;-55
2023/01/02 05:24:45;;;;;;;5.57;1.63;;;6.00;99.90;;;;;;5035945;28;19925;-55
2023/01/02 05:27:11;;;;;;;2.83;0.95;;;5.90;99.90;;;;;;5032368;28;20052;-56
2023/01/02 05:29:38;;;;;;;0.93;0.88;;;5.80;99.90;;;;;;5029654;28;20044;-57
2023/01/02 05:32:05;;;;;;;2.95;1.17;;;5.80;99.90;;;;;;5032376;28;20099;-56
2023/01/02 05:34:32;;;;;;;1.35;1.00;;;5.80;99.90;;;;;;5028072;28;20041;-56
2023/01/02 05:36:59;;;;;;;3.58;0.90;;;5.70;99.90;;;;;;5013923;28;20198;-56
2023/01/02 05:39:25;;;;;;;2.25;1.05;;;5.70;99.90;;;;;;5031043;28;20438;-55
2023/01/02 05:41:52;;;;;;;;;;;5.70;99.90;;;;;;5033502;28;20044;-55
2023/01/02 05:44:19;;;;;;;0.73;0.65;;;5.70;99.90;;;;;;5015126;28;20549;-57
2023/01/02 05:46:45;;;;;;;0.70;0.70;;;5.60;99.90;;;;;;5031541;28;20046;-53
2023/01/02 05:49:12;;;;;;;;;;;5.60;99.90;;;;;;5033146;28;20048;-56
2023/01/02 05:51:39;;;;;;;0.80;0.80;;;5.50;99.90;;;;;;5030049;28;19930;-57
2023/01/02 05:54:06;;;;;;;0.60;0.60;;;5.50;99.90;;;;;;5030345;28;20051;-56
2023/01/02 05:56:33;;;;;;;0.55;0.55;;;5.50;99.90;;;;;;5028527;28;20064;-56
2023/01/02 05:58:59;;;;;;;;;;;5.50;99.90;;;;;;5029529;28;20098;-56
2023/01/02 06:01:28;;;;;;;1.50;0.85;;;5.50;99.90;;;;;;5028185;28;19935;-56
2023/01/02 06:03:57;;;;;;;0.70;0.70;;;5.40;99.90;;;;;;5029278;28;20144;-57
2023/01/02 06:06:44;;;;;;;0.70;0.70;;;5.40;99.90;;;;;;5015169;28;20131;-56
2023/01/02 06:09:13;;;;;;;1.85;1.15;;;5.30;99.90;;;;;;5030035;28;20032;-56
2023/01/02 06:11:40;;;;;;;4.63;1.95;;;5.30;99.90;;;;;;5030529;28;20037;-56
2023/01/02 06:14:07;;;;;;;;;;;5.30;99.90;;;;;;5034671;28;20044;-57
2023/01/02 06:16:34;;;;;;;2.08;1.00;;;5.30;99.90;;;;;;5033743;28;20769;-56
2023/01/02 06:19:01;;;;;;;1.83;0.80;;;5.30;99.90;;;;;;5029089;28;20041;-56
2023/01/02 06:21:28;;;;;;;1.02;0.80;;;5.20;99.90;;;;;;5029306;28;20360;-55
2023/01/02 06:23:55;;;;;;;;;;;5.30;99.90;;;;;;5030157;28;20048;-56
2023/01/02 06:26:24;;;;;;;2.50;1.13;;;5.30;99.90;;;;;;5028391;28;19925;-56
2023/01/02 06:28:57;;;;;;;0.82;0.80;;;5.30;99.90;;;;;;5035264;28;20044;-57
2023/01/02 06:31:26;;;;;;;1.63;0.80;;;5.30;99.90;;;;;;5031770;28;20087;-56
2023/01/02 06:33:57;;;;;;;1.20;1.00;;;5.30;99.90;;;;;;5030882;28;20153;-56
2023/01/02 06:36:27;;;;;;;2.08;0.70;;;5.40;99.90;;;;;;5011726;28;20068;-56
2023/01/02 06:38:54;;;;;;;2.50;1.20;;;5.40;99.90;;;;;;5031584;28;20121;-56
2023/01/02 06:41:21;;;;;;;1.02;0.68;;;5.40;99.90;;;;;;5032057;28;20848;-57
2023/01/02 06:43:48;;;;;;;;;;;5.50;99.90;;;;;;5030897;28;20125;-56
2023/01/02 06:46:16;;;;;;;1.40;1.10;;;5.50;99.90;;;;;;5029017;28;20659;-56
2023/01/02 06:48:43;;;;;;;1.40;1.10;;;5.50;99.90;;;;;;5026287;28;20080;-57
2023/01/02 06:51:18;;;;;;;1.45;1.02;;;5.50;99.90;;;;;;5030516;28;20040;-57
2023/01/02 06:53:45;;;;;;;1.08;0.98;;;5.50;99.90;;;;;;5032160;28;20040;-55
2023/01/02 06:56:14;;;;;;;1.73;0.98;;;5.60;99.90;;;;;;5031849;28;20086;-55
2023/01/02 06:58:41;;;;;;;2.67;1.00;;;5.60;99.90;;;;;;5031564;28;20705;-54
2023/01/02 07:01:18;;;;;;;;;;;5.60;99.90;;;;;;5033244;28;20048;-56
2023/01/02 07:06:18;;;;;;;1.63;1.20;;;5.60;99.90;;;;;;5048762;27;1267859;-54
2023/01/02 07:08:45;;;;;;;2.42;0.95;;;5.60;99.90;;;;;;5059698;28;20400;-56
2023/01/02 07:11:15;;;;;;;1.70;1.20;;;5.60;99.90;;;;;;5047488;28;20495;-53
2023/01/02 07:13:45;;;;;;;3.55;1.52;;;5.60;99.90;;;;;;5045998;28;20801;-53
2023/01/02 07:16:14;;;;;;;3.22;1.35;;;5.50;99.90;;;;;;5047960;28;20068;-55
2023/01/02 07:18:42;;;;;;;1.08;0.93;;;5.40;99.90;;;;;;5047528;28;20048;-56
2023/01/02 07:21:10;;;;;;;3.58;1.75;;;5.30;99.90;;;;;;5049254;28;20072;-55
2023/01/02 07:23:37;;;;;;;1.67;1.42;;;5.30;99.90;;;;;;5047293;28;20052;-55
2023/01/02 07:26:05;;;;;;;1.20;0.90;;;5.20;99.90;;;;;;5045719;28;20680;-54
2023/01/02 07:28:33;;;;;;;3.50;2.08;;;5.20;99.90;;;;;;5047206;28;20106;-54
2023/01/02 07:31:02;;;;;;;4.20;1.83;;;5.20;99.90;;;;;;5046960;28;20041;-55
2023/01/02 07:33:30;;;;;;;3.90;1.77;;;5.20;99.90;;;;;;5047565;28;20106;-54
2023/01/02 07:35:58;;;;;;;2.72;1.23;;;5.20;99.90;;;;;;5047962;28;20056;-54
2023/01/02 07:38:25;;;;;;;1.95;1.30;;;5.40;99.90;;;;;;5042874;28;20089;-54
2023/01/02 07:40:51;;;;;;;1.40;1.13;;;5.60;99.90;;;;;;5049449;28;20083;-54
2023/01/02 07:43:19;;;;;;;3.50;1.98;;;5.90;99.90;;;;;;5050229;28;20711;-56
2023/01/02 07:45:46;;;;;;;2.55;1.42;;;6.20;99.90;;;;;;5042823;28;20132;-56
2023/01/02 07:48:17;;;;;;;2.20;1.20;;;6.50;99.90;;;;;;5027004;28;20194;-53
2023/01/02 07:50:44;;;;;;;1.20;1.10;;;6.80;99.90;;;;;;5041844;28;20037;-55
2023/01/02 07:53:11;;;;;;;1.42;1.30;;;7.10;99.90;;;;;;5028349;28;20102;-56
2023/01/02 07:55:38;;;;;;;;;;;7.50;99.90;;;;;;5034280;28;20040;-63
2023/01/02 07:58:06;;;;;;;1.88;1.23;;;7.70;99.90;;;;;;5042335;28;20755;-56
2023/01/02 08:00:32;;;;;;;;;;;7.90;99.90;;;;;;5046273;28;20719;-54
2023/01/02 08:02:59;;;;;;;2.83;1.52;;;8.10;99.90;;;;;;5043581;28;19963;-54
2023/01/02 08:05:26;;;;;;;2.20;1.13;;;8.30;99.90;;;;;;5046718;28;20670;-55
2023/01/02 08:07:53;;;;;;;3.63;1.33;;;8.50;99.90;;;;;;5045415;28;20050;-60
2023/01/02 08:10:19;;;;;;;;;;;8.80;99.90;;;;;;5045434;28;20040;-55
2023/01/02 08:12:46;;;;;;;2.70;1.45;;;9.00;99.90;;;;;;5045033;28;20673;-54
2023/01/02 08:15:13;;;;;;;;;;;9.20;99.90;;;;;;5043492;28;20273;-54
2023/01/02 08:17:40;;;;;;;2.47;1.63;;;9.30;99.90;;;;;;5031281;28;19924;-55
2023/01/02 08:20:08;;;;;;;3.30;1.63;;;9.40;99.90;;;;;;5028654;28;20166;-51
2023/01/02 08:22:35;;;;;;;5.65;1.65;;;9.30;99.90;;;;;;5030090;28;20059;-50
2023/01/02 08:25:02;;;;;;;2.10;1.40;;;9.20;99.90;;;;;;5029790;28;20040;-52
2023/01/02 08:27:29;;;;;;;5.55;2.10;;;9.10;99.90;;;;;;5032261;28;20063;-49
2023/01/02 08:29:56;;;;;;;;;;;9.00;99.90;;;;;;5032192;28;20044;-54
2023/01/02 08:32:23;;;;;;;1.75;1.48;;;8.80;99.90;;;;;;5029109;28;19924;-54
2023/01/02 08:34:49;;;;;;;;;;;8.70;99.90;;;;;;5031117;28;20049;-52
2023/01/02 08:37:16;;;;;;;3.40;1.52;;;8.60;99.90;;;;;;5032705;28;19924;-53
2023/01/02 08:39:43;;;;;;;;;;;8.50;99.90;;;;;;5030339;28;20041;-53
2023/01/02 08:42:10;;;;;;;2.20;1.70;;;8.40;99.90;;;;;;5031147;28;19978;-57
2023/01/02 08:44:36;;;;;;;1.23;1.13;;;8.40;99.90;;;;;;5027863;28;20055;-56
2023/01/02 08:47:04;;;;;;;2.38;1.23;;;8.40;99.90;;;;;;5030028;28;20042;-50
2023/01/02 08:49:31;;;;;;;2.17;1.60;;;8.40;99.90;;;;;;5028774;28;20052;-55
2023/01/02 08:51:58;;;;;;;4.78;1.63;;;8.40;99.90;;;;;;5029268;28;20043;-52
2023/01/02 08:54:25;;;;;;;;;;;8.40;99.90;;;;;;5015787;28;20145;-54
2023/01/02 08:56:51;;;;;;;1.73;1.48;;;8.40;99.90;;;;;;5028607;28;20033;-54
2023/01/02 08:59:18;;;;;;;;;;;8.50;99.90;;;;;;5030670;28;20053;-52
2023/01/02 09:01:45;;;;;;;1.77;1.27;;;8.50;99.90;;;;;;5028307;28;19951;-52
2023/01/02 09:04:12;;;;;;;2.42;1.42;;;8.60;99.90;;;;;;5030068;28;20133;-53
2023/01/02 09:06:40;;;;;;;2.38;1.58;;;8.70;99.90;;;;;;5017238;28;20079;-53
2023/01/02 09:09:08;;;;;;;9.63;2.05;;;8.80;99.90;;;;;;5032945;28;20106;-54
2023/01/02 09:11:44;;;;;;;4.03;1.90;;;8.90;99.90;;;;;;5027593;28;20453;-55
2023/01/02 09:14:11;;;;;;;3.40;2.28;;;9.00;99.90;;;;;;5031215;28;20244;-52
2023/01/02 09:16:37;;;;;;;5.10;2.35;;;9.10;99.90;;;;;;5033001;28;20037;-53
2023/01/02 09:19:04;;;;;;;;;;;9.20;99.90;;;;;;5031370;28;20045;-54
2023/01/02 09:21:31;;;;;;;2.53;2.30;;;9.20;99.90;;;;;;5031019;28;19931;-53
2023/01/02 09:23:58;;;;;;;8.43;2.83;;;9.30;99.90;;;;;;5031552;28;20045;-55
2023/01/02 09:26:24;;;;;;;;;;;9.30;99.90;;;;;;5034080;28;20948;-53
2023/01/02 09:28:51;;;;;;;2.00;1.58;;;9.30;99.90;;;;;;5013089;28;20606;-53
2023/01/02 09:31:18;;;;;;;;;;;9.30;99.90;;;;;;5016145;28;20147;-54
2023/01/02 09:33:46;;;;;;;5.90;2.57;;;9.30;99.90;;;;;;5030032;28;19924;-53
2023/01/02 09:36:16;;;;;;;5.40;2.63;;;9.30;99.90;;;;;;5028425;28;20052;-52
2023/01/02 09:38:42;;;;;;;4.50;2.40;;;9.30;99.90;;;;;;5031728;28;20544;-53
2023/01/02 09:41:31;;;;;;;;;;;9.20;99.90;;;;;;5014430;28;20075;-53
2023/01/02 09:44:18;;;;;;;3.20;2.42;;;9.20;99.90;;;;;;5031294;28;20626;-54
2023/01/02 09:47:20;;;;;;;4.28;2.80;;;9.20;99.90;;;;;;5029578;28;20151;-53
2023/01/02 09:50:15;;;;;;;4.47;2.60;;;9.20;99.90;;;;;;5028187;28;20049;-53
2023/01/02 09:52:46;;;;;;;4.03;2.22;;;9.10;99.90;;;;;;5023567;28;20049;-54
2023/01/02 09:55:15;;;;;;;3.95;2.55;;;9.20;99.90;;;;;;5031370;28;20087;-53
2023/01/02 09:58:10;;;;;;;4.03;2.58;;;9.20;99.90;;;;;;4997450;28;20147;-53
2023/01/02 10:00:37;;;;;;;5.20;2.13;;;9.30;99.90;;;;;;5031366;28;20087;-53
2023/01/02 10:03:32;;;;;;;2.80;2.20;;;9.40;99.90;;;;;;5026289;28;20632;-56
2023/01/02 10:06:32;;;;;;;4.13;2.63;;;9.60;99.90;;;;;;5030194;28;20044;-54
2023/01/02 10:09:12;;;;;;;2.45;2.05;;;9.70;99.90;;;;;;5030691;28;20072;-56
2023/01/02 10:11:48;;;;;;;3.45;2.22;;;9.80;99.90;;;;;;5026035;28;20092;-55
2023/01/02 10:14:35;;;;;;;5.85;1.83;;;9.90;99.90;;;;;;5028760;28;20135;-53
2023/01/02 10:17:12;;;;;;;3.55;2.00;;;10.00;99.90;;;;;;5018965;28;20061;-57
2023/01/02 10:20:00;;;;;;;4.50;1.98;;;10.10;99.90;;;;;;5031475;28;20281;-53
2023/01/02 10:22:43;;;;;;;3.67;2.05;;;10.20;99.90;;;;;;5029084;28;20622;-52
2023/01/02 10:25:22;;;;;;;2.65;1.70;;;10.20;99.90;;;;;;5028579;28;20634;-53
2023/01/02 10:28:06;;;;;;;3.15;2.20;;;10.30;99.90;;;;;;5030012;28;20644;-52
2023/01/02 10:30:39;;;;;;;4.05;2.30;;;10.40;99.90;;;;;;5026008;28;20476;-52
2023/01/02 10:33:45;;;;;;;4.05;2.85;;;10.50;99.90;;;;;;5029690;28;20883;-53
2023/01/02 10:36:31;;;;;;;3.78;2.20;;;10.50;99.90;;;;;;5011197;28;20071;-54
2023/01/02 10:39:05;;;;;;;2.40;1.83;;;10.50;99.90;;;;;;5027468;28;20314;-55
2023/01/02 10:41:33;;;;;;;3.35;2.05;;;10.60;99.90;;;;;;5027302;28;20044;-54
2023/01/02 10:44:23;;;;;;;1.88;1.67;;;10.60;99.90;;;;;;5030564;28;20045;-54
2023/01/02 10:46:50;;;;;;;2.50;2.17;;;10.70;99.90;;;;;;4993965;28;20867;-55
2023/01/02 10:49:18;;;;;;;2.80;1.70;;;10.70;99.90;;;;;;5028944;28;20711;-54
2023/01/02 10:52:15;;;;;;;2.55;1.75;;;10.80;99.90;;;;;;5009132;28;20442;-54
2023/01/02 10:54:48;;;;;;;4.78;1.80;;;10.80;99.90;;;;;;5025059;28;20058;-55
2023/01/02 10:57:41;;;;;;;1.95;1.30;;;11.00;99.90;;;;;;5028474;28;20127;-56
2023/01/02 11:00:27;;;;;;;2.35;1.50;;;11.10;99.90;;;;;;5015504;28;20196;-55
2023/01/02 11:03:16;;;;;;;3.17;1.67;;;11.20;99.90;;;;;;5009553;28;20049;-53
2023/01/02 11:05:52;;;;;;;3.22;1.40;;;11.30;99.90;;;;;;5012956;28;20067;-56
2023/01/02 11:08:22;;;;;;;3.05;1.70;;;11.40;99.90;;;;;;5028318;28;20049;-55
2023/01/02 11:10:50;;;;;;;3.70;1.70;;;11.50;99.90;;;;;;5029159;28;20052;-55
2023/01/02 11:13:19;;;;;;;3.88;1.88;;;11.70;99.90;;;;;;5026775;28;20968;-55
2023/01/02 11:16:01;;;;;;;2.97;1.85;;;11.80;99.90;;;;;;5026034;28;20124;-54
2023/01/02 11:18:32;;;;;;;2.42;1.90;;;12.00;99.90;;;;;;5025388;28;20140;-55
2023/01/02 11:21:04;;;;;;;6.13;2.25;;;12.20;99.90;;;;;;5027326;28;20040;-55
2023/01/02 11:23:36;;;;;;;5.93;2.70;;;12.40;99.90;;;;;;5028046;28;20037;-54
2023/01/02 11:26:04;;;;;;;3.58;2.40;;;12.60;99.90;;;;;;5010928;28;20130;-54
2023/01/02 11:28:33;;;;;;;4.82;2.85;;;12.80;99.90;;;;;;5028500;28;20048;-54
2023/01/02 11:31:04;;;;;;;5.93;2.60;;;12.90;99.90;;;;;;5012549;28;20040;-55
2023/01/02 11:33:34;;;;;;;5.75;2.90;;;13.10;99.90;;;;;;5029725;28;20037;-55
2023/01/02 11:36:02;;;;;;;3.78;2.30;;;13.20;99.90;;;;;;5027105;28;20980;-55
2023/01/02 11:38:59;;;;;;;3.20;1.90;;;13.30;99.90;;;;;;5011437;28;20098;-53
2023/01/02 11:44:27;;;;;;;3.70;1.73;;;13.40;99.90;;;;;;5024141;28;20037;-54
2023/01/02 11:46:55;;;;;;;2.50;1.73;;;13.40;99.90;;;;;;5029610;28;20052;-54
2023/01/02 11:49:45;;;;;;;5.63;2.20;;;13.30;99.90;;;;;;5027755;28;20055;-55
2023/01/02 11:52:17;;;;;;;2.10;1.63;;;13.30;99.90;;;;;;5029350;28;20867;-55
2023/01/02 11:55:05;;;;;;;1.70;1.60;;;13.30;99.90;;;;;;5029884;28;20052;-56
2023/01/02 11:57:46;;;;;;;1.85;1.40;;;13.30;99.90;;;;;;5032234;28;20811;-54
2023/01/02 12:00:17;;;;;;;5.22;2.38;;;13.20;99.90;;;;;;5031843;28;20069;-55
2023/01/02 12:02:49;;;;;;;4.75;2.28;;;13.10;99.90;;;;;;5031968;28;20147;-56
2023/01/02 12:05:24;;;;;;;2.92;1.83;;;13.10;99.90;;;;;;5028828;28;20114;-54
2023/01/02 12:08:00;;;;;;;4.97;2.47;;;13.00;99.90;;;;;;5029119;28;20048;-55
2023/01/02 12:10:59;;;;;;;3.85;2.28;;;13.00;99.90;;;;;;5030703;28;20619;-56
2023/01/02 12:14:16;;;;;;;1.95;1.48;;;13.00;99.90;;;;;;4992095;28;20068;-55
2023/01/02 12:17:09;;;;;;;8.82;2.65;;;13.00;99.90;;;;;;5000792;28;20100;-55
2023/01/02 12:19:57;;;;;;;3.55;1.80;;;13.00;99.90;;;;;;5030171;28;20045;-55
2023/01/02 12:22:55;;;;;;;7.32;2.55;;;13.00;99.90;;;;;;5033069;28;20122;-55
2023/01/02 12:25:41;;;;;;;8.75;2.92;;;13.00;99.90;;;;;;5031497;28;20803;-57
2023/01/02 12:28:38;;;;;;;13.43;3.70;;;13.00;99.90;;;;;;5030915;28;20126;-55
2023/01/02 12:31:36;;;;;;;7.03;3.47;;;13.00;99.90;;;;;;5030925;28;20045;-56
2023/01/02 12:34:35;;;;;;;13.40;3.88;;;13.00;99.90;;;;;;5029652;28;20588;-56
2023/01/02 12:37:09;;;;;;;6.28;3.08;;;12.90;99.90;;;;;;5031659;28;20941;-55
2023/01/02 12:40:01;;;;;;;8.98;2.95;;;12.90;99.90;;;;;;5030172;28;20048;-55
2023/01/02 12:42:34;;;;;;;4.38;2.53;;;12.90;99.90;;;;;;5031349;28;20069;-56
2023/01/02 12:45:01;;;;;;;6.22;2.72;;;12.90;99.90;;;;;;5028027;28;20498;-54
2023/01/02 12:47:37;;;;;;;;;;;12.80;99.90;;;;;;5031977;28;20086;-54
2023/01/02 12:50:21;;;;;;;5.43;2.63;;;12.80;99.90;;;;;;5027937;28;19929;-56
2023/01/02 12:53:10;;;;;;;4.20;2.05;;;12.80;99.90;;;;;;5028870;28;20157;-56
2023/01/02 12:56:04;;;;;;;8.93;2.25;;;12.80;99.90;;;;;;5028776;28;20139;-55
2023/01/02 12:58:42;;;;;;;7.45;2.47;;;12.80;99.90;;;;;;5030931;28;20049;-55
2023/01/02 13:01:34;;;;;;;5.00;1.88;;;12.80;99.90;;;;;;5029359;28;20068;-58
2023/01/02 13:04:19;;;;;;;2.95;1.52;;;12.80;99.90;;;;;;5028461;28;20076;-57
2023/01/02 13:07:06;;;;;;;2.03;1.65;;;12.80;99.90;;;;;;5030818;28;20049;-56
2023/01/02 13:09:44;;;;;;;4.45;1.77;;;12.80;99.90;;;;;;5031356;28;20135;-56
2023/01/02 13:12:27;;;;;;;5.82;1.60;;;12.70;99.90;;;;;;5031411;28;20045;-55
2023/01/02 13:15:24;;;;;;;3.78;2.05;;;12.80;99.90;;;;;;5028448;28;20049;-57
2023/01/02 13:18:15;;;;;;;4.40;2.00;;;12.80;99.90;;;;;;5027503;28;20041;-54
2023/01/02 13:20:48;;;;;;;4.70;2.10;;;12.80;99.90;;;;;;5030966;28;20139;-53
2023/01/02 13:23:35;;;;;;;5.03;2.22;;;12.90;99.90;;;;;;5030105;28;20064;-53
2023/01/02 13:26:17;;;;;;;4.65;2.05;;;12.90;99.90;;;;;;5032063;28;20778;-52
2023/01/02 13:28:55;;;;;;;4.20;2.17;;;12.90;99.90;;;;;;5028757;28;20049;-53
2023/01/02 13:31:22;;;;;;;3.38;1.83;;;12.90;99.90;;;;;;5014144;28;20040;-56
2023/01/02 13:34:15;;;;;;;3.90;1.87;;;12.90;99.90;;;;;;5029369;28;20040;-54
2023/01/02 13:36:56;;;;;;;1.70;1.20;;;12.90;99.90;;;;;;5031354;28;20045;-56
2023/01/02 13:39:28;;;;;;;2.05;1.40;;;12.90;99.90;;;;;;5028175;28;20037;-55
2023/01/02 13:44:48;;;;;;;2.92;1.30;;;12.90;99.90;;;;;;5028024;28;20075;-56
2023/01/02 13:47:31;;;;;;;8.98;2.55;;;12.90;99.90;;;;;;5029391;28;20063;-53